createdAt,value
2018-03-27T00:05:32.108Z,10.6
2018-03-27T00:15:31.374Z,10.6
2018-03-27T00:25:30.674Z,10.7
2018-03-27T00:35:30.070Z,10.7
2018-03-27T00:45:29.129Z,10.7
2018-03-27T00:55:28.215Z,10.7
2018-03-27T01:05:27.655Z,10.6
2018-03-27T01:15:26.533Z,10.6
2018-03-27T01:25:26.137Z,10.6
2018-03-27T01:35:25.190Z,10.7
2018-03-27T01:45:24.432Z,10.7
2018-03-27T01:55:23.131Z,10.7
2018-03-27T02:05:22.548Z,10.6
2018-03-27T02:15:22.184Z,10.6
2018-03-27T02:25:21.107Z,10.6
2018-03-27T02:35:20.775Z,10.7
2018-03-27T02:45:19.250Z,10.7
2018-03-27T02:55:18.694Z,10.6
2018-03-27T03:05:17.528Z,10.6
2018-03-27T03:15:16.869Z,10.5
2018-03-27T03:25:16.107Z,10.4
2018-03-27T03:35:15.220Z,10.3
2018-03-27T03:45:14.421Z,10.3
2018-03-27T03:55:13.848Z,7.9
2018-03-27T04:05:13.233Z,7.3
2018-03-27T04:15:12.033Z,6.9
2018-03-27T04:25:11.565Z,6.6
2018-03-27T04:35:10.481Z,6.4
2018-03-27T04:45:09.882Z,6.4
2018-03-27T04:55:09.452Z,6.3
2018-03-27T05:05:08.082Z,6.2
2018-03-27T05:15:07.368Z,6.1
2018-03-27T05:25:06.609Z,6.1
2018-03-27T05:35:05.882Z,6
2018-03-27T05:45:05.344Z,5.9
2018-03-27T05:55:04.166Z,6
2018-03-27T06:05:03.491Z,6.1
2018-03-27T06:15:03.027Z,6.1
2018-03-27T06:25:01.863Z,6.3
2018-03-27T06:35:00.911Z,6.3
2018-03-27T06:45:00.179Z,6.3
2018-03-27T06:54:59.677Z,6.6
2018-03-27T07:04:58.506Z,6.9
2018-03-27T07:14:58.253Z,6.8
2018-03-27T07:24:57.646Z,6.6
2018-03-27T07:34:56.900Z,6.3
2018-03-27T07:44:55.194Z,6
2018-03-27T07:55:09.410Z,5.9
2018-03-27T08:04:53.695Z,5.6
2018-03-27T08:14:53.752Z,5.4
2018-03-27T08:24:52.333Z,5.5
2018-03-27T08:34:51.536Z,6.1
2018-03-27T08:44:50.772Z,6.9
2018-03-27T08:54:49.551Z,7.1
2018-03-27T09:04:49.168Z,7.1
2018-03-27T09:14:48.190Z,7.4
2018-03-27T09:24:47.357Z,8.8
2018-03-27T09:34:46.552Z,9.2
2018-03-27T09:44:45.924Z,10.9
2018-03-27T09:54:45.191Z,11.1
2018-03-27T10:04:44.381Z,11.2
2018-03-27T10:14:43.724Z,12.4
2018-03-27T10:24:42.796Z,13.8
2018-03-27T10:34:41.950Z,13.1
2018-03-27T10:44:40.758Z,12.3
2018-03-27T10:54:40.057Z,11.5
2018-03-27T11:04:39.691Z,10.3
2018-03-27T11:14:38.717Z,9.4
2018-03-27T11:24:37.798Z,9.1
2018-03-27T11:34:37.248Z,9.1
2018-03-27T11:44:36.394Z,9.1
2018-03-27T11:54:35.216Z,9.4
2018-03-27T12:04:34.545Z,9.9
2018-03-27T12:14:33.944Z,9.9
2018-03-27T12:24:33.315Z,9.9
2018-03-27T12:34:32.389Z,9.8
2018-03-27T12:44:31.249Z,9.7
2018-03-27T12:54:30.395Z,9.6
2018-03-27T13:04:29.732Z,9.4
2018-03-27T13:14:29.181Z,9.1
2018-03-27T13:24:28.326Z,9
2018-03-27T13:34:27.690Z,8.7
2018-03-27T13:44:26.528Z,8.3
2018-03-27T13:54:26.422Z,8
2018-03-27T14:04:25.301Z,7.8
2018-03-27T14:14:24.571Z,7.8
2018-03-27T14:24:23.682Z,7.8
2018-03-27T14:34:22.556Z,7.6
2018-03-27T14:44:21.701Z,7.9
2018-03-27T14:54:21.159Z,8.1
2018-03-27T15:04:20.455Z,7.9
2018-03-27T15:14:19.229Z,7.7
2018-03-27T15:24:18.963Z,7.4
2018-03-27T15:34:18.207Z,7.3
2018-03-27T15:44:16.993Z,7.2
2018-03-27T15:54:16.437Z,7.1
2018-03-27T16:04:15.600Z,6.9
2018-03-27T16:14:14.716Z,6.9
2018-03-27T16:24:14.206Z,6.8
2018-03-27T16:34:13.608Z,6.7
2018-03-27T16:44:12.226Z,6.4
2018-03-27T16:54:11.537Z,6.3
2018-03-27T17:04:10.801Z,7.6
2018-03-27T17:14:09.838Z,8.1
2018-03-27T17:24:08.953Z,8.4
2018-03-27T17:34:08.182Z,8.6
2018-03-27T17:44:07.772Z,8.8
2018-03-27T17:54:06.785Z,8.8
2018-03-27T18:04:20.874Z,8.9
2018-03-27T18:34:03.596Z,9.4
2018-03-27T18:44:02.649Z,9.4
2018-03-27T18:54:02.301Z,9.4
2018-03-27T19:04:01.434Z,9.6
2018-03-27T19:14:00.656Z,9.8
2018-03-27T19:23:59.614Z,9.9
2018-03-27T19:33:58.548Z,9.9
2018-03-27T19:43:58.124Z,10
2018-03-27T19:53:57.159Z,9.9
2018-03-27T20:03:56.760Z,9.9
2018-03-27T20:13:55.588Z,10
2018-03-27T20:23:55.212Z,10
2018-03-27T20:33:54.594Z,10.1
2018-03-27T20:43:53.126Z,10.1
2018-03-27T20:53:52.636Z,10.1
2018-03-27T21:03:51.806Z,10
2018-03-27T21:13:50.864Z,9.9
2018-03-27T21:23:50.206Z,9.9
2018-03-27T21:33:48.994Z,9.9
2018-03-27T21:43:48.416Z,9.9
2018-03-27T21:53:47.799Z,9.8
2018-03-27T22:03:46.985Z,9.9
2018-03-27T22:13:46.211Z,9.9
2018-03-27T22:23:45.129Z,9.9
2018-03-27T22:33:44.550Z,9.9
2018-03-27T22:43:43.664Z,9.9
2018-03-27T22:53:43.385Z,9.8
2018-03-27T23:03:42.219Z,9.8
2018-03-27T23:13:41.506Z,9.6
2018-03-27T23:23:40.627Z,9.6
2018-03-27T23:33:39.574Z,9.7
2018-03-27T23:43:39.403Z,9.8
2018-03-27T23:53:37.945Z,9.8
